METAR - Ísland

Uppfært síðast 23.06.2024 - kl. 09:05

SIGMET síðustu 6 klst.

Engin SIGMET skeyti bárust síðustu 6 klst.

METAR síðustu 3 klst

Frá og með 1. október 2021, munu brautarskilyrði ekki birtast í METAR skeytum.
Í staðinn mun ISAVIA gefa út SNOWTAM á síðunni SNOWTAM | Isavia.

Flugv.TímiSkeyti
BIAR2024-06-23 09.00METAR BIAR 230900Z 19012KT 9999 BKN045 12/05 Q0993
BIAR2024-06-23 08.00METAR BIAR 230800Z 19015KT 9999 SCT037 BKN064 11/04 Q0992
BIAR2024-06-23 07.52SPECI BIAR 230752Z 20015KT 9999 SCT037 BKN064 11/05 Q0991
BIAR2024-06-23 07.00METAR BIAR 230700Z VRB05KT 9999 FEW030 BKN060 10/05 Q0991
BIEG2024-06-23 09.00METAR BIEG 230900Z 22013KT 9999 BKN040 12/05 Q0993
BIEG2024-06-23 08.00METAR BIEG 230800Z 22008KT 9999 SCT045 12/06 Q0992
BIEG2024-06-23 07.00METAR BIEG 230700Z 22003KT 9999 BKN045 10/06 Q0991
BIGR2024-06-23 09.00METAR BIGR 230900Z 27022KT 9999 FEW011 OVC037 04/03 Q0993
BIGR2024-06-23 08.00METAR BIGR 230800Z 27026KT 9999 FEW011 OVC027 04/03 Q0992
BIHN2024-06-23 08.00METAR BIHN 230800Z 23013KT 9999 HZ FEW010 FEW022 11/08 Q0994
BIIS2024-06-23 09.00METAR BIIS 230900Z 05008KT 9999 FEW015 OVC018 04/01 Q0995
BIIS2024-06-23 08.00METAR BIIS 230800Z 05007KT 9999 FEW015 OVC018 04/01 Q0994
BIKF2024-06-23 09.00METAR BIKF 230900Z 21020KT 9000 -DZ OVC006 09/08 Q0994
BIKF2024-06-23 08.30METAR BIKF 230830Z 22022KT 7000 -DZ OVC005 09/08 Q0994
BIKF2024-06-23 08.00METAR BIKF 230800Z 21021KT 9999 -DZ OVC007 08/08 Q0994
BIKF2024-06-23 07.30METAR BIKF 230730Z 21020KT 9000 -DZ OVC006 09/08 Q0993
BIKF2024-06-23 07.00METAR BIKF 230700Z 20018KT 3000 -DZ BR OVC005 08/08 Q0993
BIKF2024-06-23 06.30METAR BIKF 230630Z 20017KT 3000 -RA OVC005 08/08 Q0993
BIRK2024-06-23 09.00METAR BIRK 230900Z 22020KT 9999 VCSH SCT007 OVC018 09/09 Q0995
BIRK2024-06-23 08.00METAR BIRK 230800Z 20014KT 6000 -SHRA BR SCT005 OVC012 09/09 Q0995
BIRK2024-06-23 07.00METAR BIRK 230700Z 19010KT 8000 -SHRA BR OVC007 09/09 Q0994
BIVM2024-06-23 08.47METAR BIVM 230847Z 24018KT 3000 OVC030 08/07 Q0997

Textaspár eru skrifaðar af vakthafandi veðurfræðingi á Veðurstofu Íslands.




Aðrir tengdir vefir



Þetta vefsvæði byggir á Eplica